Time;durP1;ratioP1;P1;durP2;ratioP2;P2;SDS_P1;SDS_P2;PMS_P1;PMS_P2;Temp;Humidity;BMP_temperature;BMP_pressure;BME280_temperature;BME280_humidity;BME280_pressure;Samples;Min_cycle;Max_cycle;Signal;HPM_P1;HPM_P2
2021/11/18 00:01:55;;;;;;;;;;;;;;;27.91;76.57;100876.09;5077049;27;70985;-40
2021/11/18 00:04:26;;;;;;;;;;;;;;;27.91;75.35;100878.81;5079348;27;65621;-40
2021/11/18 00:06:57;;;;;;;;;;;;;;;27.87;78.55;100877.56;5078091;27;70266;-40
2021/11/18 00:09:29;;;;;;;;;;;;;;;27.82;79.05;100872.75;5078169;27;67150;-40
2021/11/18 00:12:00;;;;;;;;;;;;;;;27.77;80.39;100874.34;5078855;27;70620;-39
2021/11/18 00:14:30;;;;;;;;;;;;;;;27.73;79.38;100878.50;5078387;27;66685;-39
2021/11/18 00:17:01;;;;;;;;;;;;;;;27.81;77.91;100871.09;5075959;27;69109;-38
2021/11/18 00:19:32;;;;;;;;;;;;;;;27.93;76.16;100862.44;5077397;27;65764;-38
2021/11/18 00:22:05;;;;;;;;;;;;;;;28.01;74.09;100873.06;5078054;27;70339;-39
2021/11/18 00:24:36;;;;;;;;;;;;;;;28.09;73.06;100880.16;5078500;27;66455;-39
2021/11/18 00:27:07;;;;;;;;;;;;;;;28.03;72.53;100869.13;5078998;27;70440;-39
2021/11/18 00:29:37;;;;;;;;;;;;;;;28.18;71.87;100887.03;5078690;27;65390;-39
2021/11/18 00:32:10;;;;;;;;;;;;;;;28.22;71.68;100882.88;5078791;27;70091;-40
2021/11/18 00:34:48;;;;;;;;;;;;;;;28.27;71.28;100885.78;5076295;27;66296;-39
2021/11/18 00:37:19;;;;;;;;;;;;;;;28.30;71.19;100896.19;5070961;27;69193;-40
2021/11/18 00:40:07;;;;;;;;;;;;;;;28.34;70.59;100891.22;5073758;27;66287;-40
2021/11/18 00:42:42;;;;;;;;;;;;;;;28.37;70.98;100897.03;5073085;27;70678;-40
2021/11/18 00:45:27;;;;;;;;;;;;;;;28.40;70.50;100899.34;5062068;27;65543;-40
2021/11/18 00:48:01;;;;;;;;;;;;;;;28.39;70.55;100897.69;5071640;27;70397;-40
2021/11/18 00:50:55;;;;;;;;;;;;;;;28.45;70.33;100905.00;5057221;28;64488;-40
2021/11/18 00:53:55;;;;;;;;;;;;;;;28.47;69.96;100911.03;5060855;28;69044;-40
2021/11/18 00:56:36;;;;;;;;;;;;;;;28.49;70.04;100911.63;5075718;27;65617;-39
2021/11/18 00:59:15;;;;;;;;;;;;;;;28.51;69.80;100917.66;5077383;27;69910;-40
2021/11/18 01:02:00;;;;;;;;;;;;;;;28.54;69.64;100910.19;5074183;27;66243;-40
2021/11/18 01:04:39;;;;;;;;;;;;;;;28.57;69.92;100909.78;5044233;28;69253;-40
2021/11/18 01:07:11;;;;;;;;;;;;;;;28.59;69.65;100900.47;5075262;27;65572;-40
2021/11/18 01:09:56;;;;;;;;;;;;;;;28.61;69.51;100897.53;5078371;27;69770;-40
2021/11/18 01:12:33;;;;;;;;;;;;;;;28.63;69.47;100898.16;5062730;27;65753;-39
2021/11/18 01:15:15;;;;;;;;;;;;;;;28.66;69.73;100897.75;5076017;27;70129;-39
2021/11/18 01:17:58;;;;;;;;;;;;;;;28.67;69.42;100889.47;5070998;28;66318;-40
2021/11/18 01:20:35;;;;;;;;;;;;;;;28.70;69.67;100890.94;5076210;27;69313;-40
2021/11/18 01:23:25;;;;;;;;;;;;;;;28.69;69.38;100897.34;5076024;27;66104;-40
2021/11/18 01:26:14;;;;;;;;;;;;;;;28.74;69.71;100892.16;5063619;27;70279;-39
2021/11/18 01:28:52;;;;;;;;;;;;;;;28.76;69.56;100906.31;5075373;27;67068;-39
2021/11/18 01:31:34;;;;;;;;;;;;;;;28.79;69.38;100900.50;5075891;27;70573;-39
2021/11/18 01:34:15;;;;;;;;;;;;;;;28.81;69.32;100903.81;5077326;27;66720;-39
2021/11/18 01:36:53;;;;;;;;;;;;;;;28.82;69.26;100897.38;5075977;27;70618;-40
2021/11/18 01:39:34;;;;;;;;;;;;;;;28.85;69.24;100906.94;5075811;27;67452;-40
2021/11/18 01:42:08;;;;;;;;;;;;;;;28.88;69.16;100904.63;5072481;27;69408;-40
2021/11/18 01:44:52;;;;;;;;;;;;;;;28.89;69.05;100898.22;5073459;27;66806;-41
2021/11/18 01:47:27;;;;;;;;;;;;;;;28.92;69.48;100899.69;5076203;27;69314;-38
2021/11/18 01:50:04;;;;;;;;;;;;;;;28.94;69.54;100903.81;5072570;27;66470;-39
2021/11/18 01:53:12;;;;;;;;;;;;;;;28.96;69.06;100893.63;5074752;27;69339;-40
2021/11/18 01:56:08;;;;;;;;;;;;;;;28.99;69.40;100894.28;5074379;27;65536;-40
2021/11/18 01:58:47;;;;;;;;;;;;;;;29.02;69.40;100899.25;5071324;27;69418;-39
2021/11/18 02:01:42;;;;;;;;;;;;;;;29.04;68.93;100897.22;5056601;27;66691;-40
2021/11/18 02:05:11;;;;;;;;;;;;;;;29.07;69.32;100907.59;5073362;27;70212;-40
2021/11/18 02:08:06;;;;;;;;;;;;;;;29.11;68.97;100900.72;5075711;27;65880;-40
2021/11/18 02:11:34;;;;;;;;;;;;;;;29.13;68.79;100896.78;5070992;27;70046;-40
2021/11/18 02:14:17;;;;;;;;;;;;;;;29.17;68.74;100891.81;5061785;27;65627;-40
2021/11/18 02:17:14;;;;;;;;;;;;;;;29.19;68.88;100887.03;5074672;27;70213;-40
2021/11/18 02:20:06;;;;;;;;;;;;;;;29.23;68.74;100890.97;5074828;27;67120;-40
2021/11/18 02:23:01;;;;;;;;;;;;;;;29.27;69.03;100885.97;5064048;27;69983;-40
2021/11/18 02:25:37;;;;;;;;;;;;;;;29.28;68.68;100877.69;5076197;27;66756;-40
2021/11/18 02:28:20;;;;;;;;;;;;;;;29.26;68.95;100868.94;5075662;27;70340;-41
2021/11/18 02:31:03;;;;;;;;;;;;;;;29.33;69.09;100875.16;5054424;28;65146;-40
2021/11/18 02:33:36;;;;;;;;;;;;;;;29.35;68.47;100872.25;5048878;28;70465;-41
2021/11/18 02:36:30;;;;;;;;;;;;;;;29.38;69.04;100875.34;5074309;27;65352;-41
2021/11/18 02:39:16;;;;;;;;;;;;;;;29.40;68.55;100878.69;5071536;27;70415;-39
2021/11/18 02:41:59;;;;;;;;;;;;;;;29.42;68.71;100867.69;5074653;27;66804;-39
2021/11/18 02:44:37;;;;;;;;;;;;;;;29.45;69.00;100877.22;5073633;27;70025;-40
2021/11/18 02:47:16;;;;;;;;;;;;;;;29.46;68.87;100873.50;5055636;28;66232;-39
2021/11/18 02:49:54;;;;;;;;;;;;;;;29.49;68.96;100875.78;5054576;27;70323;-40
2021/11/18 02:52:31;;;;;;;;;;;;;;;29.51;68.60;100882.63;5075094;27;66368;-40
2021/11/18 02:55:14;;;;;;;;;;;;;;;29.54;68.99;100884.06;5077222;27;68936;-40
2021/11/18 02:57:49;;;;;;;;;;;;;;;29.57;68.53;100880.94;5075451;27;66168;-40
2021/11/18 03:00:27;;;;;;;;;;;;;;;29.59;68.85;100889.69;5054514;27;69560;-39
2021/11/18 03:03:18;;;;;;;;;;;;;;;29.61;68.76;100883.03;5069847;27;66577;-40
2021/11/18 03:05:50;;;;;;;;;;;;;;;29.65;68.28;100882.63;5062455;27;72271;-41
2021/11/18 03:08:25;;;;;;;;;;;;;;;29.67;68.70;100886.78;5074759;27;66593;-41
2021/11/18 03:11:01;;;;;;;;;;;;;;;29.70;68.41;100877.41;5076205;27;69192;-39
2021/11/18 03:13:32;;;;;;;;;;;;;;;29.73;68.49;100880.53;5071739;27;66632;-39
2021/11/18 03:16:08;;;;;;;;;;;;;;;29.75;68.02;100878.41;5074915;27;70718;-40
2021/11/18 03:18:39;;;;;;;;;;;;;;;29.69;68.11;100852.25;5073662;27;66196;-40
2021/11/18 03:21:14;;;;;;;;;;;;;;;29.81;68.52;100865.91;5074552;27;69928;-41
2021/11/18 03:23:51;;;;;;;;;;;;;;;29.83;67.82;100856.56;5073716;27;65540;-40
2021/11/18 03:26:25;;;;;;;;;;;;;;;29.85;67.86;100853.66;5074122;27;69830;-39
2021/11/18 03:28:56;;;;;;;;;;;;;;;29.89;67.89;100859.44;5073275;27;66609;-39
2021/11/18 03:31:27;;;;;;;;;;;;;;;29.91;68.24;100868.19;5075100;28;68992;-40
2021/11/18 03:34:04;;;;;;;;;;;;;;;29.93;68.20;100863.41;5072098;27;65412;-40
2021/11/18 03:36:36;;;;;;;;;;;;;;;29.94;68.07;100851.53;5073830;27;70325;-39
2021/11/18 03:39:08;;;;;;;;;;;;;;;29.97;67.68;100857.34;5071987;27;66921;-41
2021/11/18 03:41:45;;;;;;;;;;;;;;;30.00;67.97;100858.78;5072563;27;69929;-41
2021/11/18 03:44:17;;;;;;;;;;;;;;;30.01;67.49;100855.03;5075424;27;66268;-40
2021/11/18 03:46:51;;;;;;;;;;;;;;;30.03;67.53;100859.19;5070194;27;69886;-40
2021/11/18 03:49:23;;;;;;;;;;;;;;;30.05;67.85;100854.38;5074054;27;66608;-39
2021/11/18 03:51:55;;;;;;;;;;;;;;;30.08;67.64;100845.00;5073685;27;69904;-38
2021/11/18 03:54:28;;;;;;;;;;;;;;;30.11;67.63;100854.56;5074335;27;66525;-39
2021/11/18 03:57:03;;;;;;;;;;;;;;;30.13;67.35;100841.66;5055561;28;69796;-39
2021/11/18 04:00:05;;;;;;;;;;;;;;;30.15;67.21;100845.81;5059688;27;66411;-40
2021/11/18 04:02:44;;;;;;;;;;;;;;;30.17;67.36;100838.31;5073601;27;70119;-39
2021/11/18 04:05:21;;;;;;;;;;;;;;;30.19;67.56;100836.22;5072170;27;65631;-41
2021/11/18 04:07:52;;;;;;;;;;;;;;;30.21;67.57;100823.31;5074836;27;71110;-40
2021/11/18 04:10:25;;;;;;;;;;;;;;;30.23;67.38;100832.06;5072032;27;67533;-39
2021/11/18 04:12:57;;;;;;;;;;;;;;;30.25;67.20;100829.94;5073700;27;69309;-40
2021/11/18 04:15:28;;;;;;;;;;;;;;;30.28;66.98;100817.88;5071876;27;65459;-40
2021/11/18 04:18:00;;;;;;;;;;;;;;;30.30;67.15;100814.97;5073165;27;70328;-39
2021/11/18 04:20:36;;;;;;;;;;;;;;;30.33;67.25;100801.81;5074116;27;65020;-40
2021/11/18 04:23:07;;;;;;;;;;;;;;;30.36;67.17;100792.44;5073257;27;70554;-40
2021/11/18 04:25:39;;;;;;;;;;;;;;;30.38;67.29;100782.22;5072666;27;65715;-40
2021/11/18 04:28:10;;;;;;;;;;;;;;;30.38;67.34;100776.81;5074178;27;70125;-40
2021/11/18 04:30:44;;;;;;;;;;;;;;;30.44;67.09;100774.03;5059100;27;67702;-40
2021/11/18 04:33:24;;;;;;;;;;;;;;;30.46;67.45;100768.41;5075400;27;70139;-39
2021/11/18 04:35:57;;;;;;;;;;;;;;;30.50;66.84;100758.81;5059810;27;66593;-39
2021/11/18 04:38:28;;;;;;;;;;;;;;;30.53;67.46;100766.47;5077809;27;69987;-40
2021/11/18 04:41:00;;;;;;;;;;;;;;;30.56;67.10;100763.31;5060760;27;65506;-39
2021/11/18 04:43:31;;;;;;;;;;;;;;;30.59;66.79;100749.38;5044183;28;70297;-39
2021/11/18 04:46:07;;;;;;;;;;;;;;;30.61;67.23;100749.97;5060665;28;66468;-39
2021/11/18 04:48:39;;;;;;;;;;;;;;;30.65;66.95;100748.47;5075154;28;70124;-40
2021/11/18 04:51:12;;;;;;;;;;;;;;;30.69;67.24;100743.44;5076737;27;66542;-40
2021/11/18 04:53:45;;;;;;;;;;;;;;;30.72;66.96;100741.09;5062187;27;70523;-39
2021/11/18 04:56:16;;;;;;;;;;;;;;;30.77;66.76;100731.50;5075227;27;65349;-39
2021/11/18 04:58:49;;;;;;;;;;;;;;;30.78;66.78;100725.84;5062944;27;70539;-39
2021/11/18 05:01:22;;;;;;;;;;;;;;;30.81;66.85;100724.59;5062831;27;66938;-40
2021/11/18 05:03:52;;;;;;;;;;;;;;;30.85;66.45;100720.41;5060285;27;70187;-40
2021/11/18 05:06:24;;;;;;;;;;;;;;;30.87;66.92;100702.88;5077413;27;65998;-39
2021/11/18 05:08:55;;;;;;;;;;;;;;;30.79;66.57;100689.59;5075540;27;70065;-38
2021/11/18 05:11:26;;;;;;;;;;;;;;;30.92;66.51;100699.50;5078474;27;66236;-40
2021/11/18 05:13:57;;;;;;;;;;;;;;;30.94;66.62;100695.50;5075283;27;70413;-40
2021/11/18 05:16:30;;;;;;;;;;;;;;;30.97;66.48;100694.22;5075686;27;66807;-40
2021/11/18 05:19:01;;;;;;;;;;;;;;;30.99;66.99;100692.13;5075495;27;70439;-40
2021/11/18 05:21:34;;;;;;;;;;;;;;;31.01;66.88;100692.75;5078500;27;66168;-40
2021/11/18 05:24:06;;;;;;;;;;;;;;;31.04;66.72;100686.88;5073459;27;70712;-40
2021/11/18 05:26:38;;;;;;;;;;;;;;;31.07;66.57;100674.75;5075945;27;65875;-39
2021/11/18 05:29:09;;;;;;;;;;;;;;;31.10;66.67;100677.00;5075750;27;69582;-40
2021/11/18 05:31:40;;;;;;;;;;;;;;;31.12;66.09;100667.59;5075319;27;66597;-40
2021/11/18 05:34:34;;;;;;;;;;;;;;;31.15;66.25;100672.56;5073402;27;69470;-40
2021/11/18 05:37:05;;;;;;;;;;;;;;;31.16;66.20;100657.94;5074384;27;66707;-40
2021/11/18 05:39:37;;;;;;;;;;;;;;;31.21;66.11;100653.75;5074260;27;69429;-39
2021/11/18 05:42:08;;;;;;;;;;;;;;;31.25;66.05;100646.81;5074747;27;67035;-39
2021/11/18 05:44:39;;;;;;;;;;;;;;;31.28;65.97;100640.91;5076577;27;69201;-40
2021/11/18 05:47:10;;;;;;;;;;;;;;;31.30;65.53;100636.09;5076875;27;66118;-39
2021/11/18 05:49:40;;;;;;;;;;;;;;;31.33;65.59;100628.34;5074518;27;70055;-40
2021/11/18 05:52:18;;;;;;;;;;;;;;;31.36;65.86;100629.78;5073931;27;65848;-40
2021/11/18 05:54:49;;;;;;;;;;;;;;;31.38;65.50;100617.66;5076388;27;69597;-40
2021/11/18 05:57:20;;;;;;;;;;;;;;;31.42;65.72;100615.31;5074767;27;65744;-40
2021/11/18 05:59:51;;;;;;;;;;;;;;;31.45;65.48;100612.13;5076772;27;68727;-39
2021/11/18 06:02:22;;;;;;;;;;;;;;;31.47;64.98;100610.03;5075032;28;65568;-39
2021/11/18 06:04:53;;;;;;;;;;;;;;;31.51;65.00;100596.84;5076970;27;70256;-40
2021/11/18 06:07:24;;;;;;;;;;;;;;;31.53;64.93;100582.00;5076021;27;66622;-40
2021/11/18 06:09:56;;;;;;;;;;;;;;;31.56;65.23;100586.13;5074848;27;70083;-40
2021/11/18 06:12:27;;;;;;;;;;;;;;;31.58;65.02;100581.31;5076177;27;66679;-40
2021/11/18 06:14:58;;;;;;;;;;;;;;;31.60;64.97;100577.31;5075552;27;69743;-40
2021/11/18 06:17:28;;;;;;;;;;;;;;;31.63;64.95;100578.72;5058912;27;65652;-40
2021/11/18 06:19:59;;;;;;;;;;;;;;;31.64;65.13;100571.41;5075975;27;70685;-39
2021/11/18 06:22:33;;;;;;;;;;;;;;;31.68;64.92;100575.28;5074349;27;65587;-39
2021/11/18 06:25:11;;;;;;;;;;;;;;;31.69;64.61;100563.41;5072414;27;70391;-39
2021/11/18 06:27:43;;;;;;;;;;;;;;;31.71;64.20;100556.69;5074638;27;66435;-39
2021/11/18 06:30:17;;;;;;;;;;;;;;;31.73;64.49;100548.31;5076809;27;70445;-39
2021/11/18 06:32:48;;;;;;;;;;;;;;;31.75;64.63;100552.44;5074736;27;66416;-39
2021/11/18 06:35:18;;;;;;;;;;;;;;;31.76;64.35;100537.84;5075567;27;70058;-38
2021/11/18 06:37:50;;;;;;;;;;;;;;;31.78;64.15;100541.13;5074414;27;66309;-40
2021/11/18 06:40:21;;;;;;;;;;;;;;;31.79;64.11;100537.38;5076801;27;69367;-39
2021/11/18 06:42:52;;;;;;;;;;;;;;;31.83;64.06;100543.97;5076009;27;66397;-38
2021/11/18 06:45:37;;;;;;;;;;;;;;;31.85;64.38;100534.78;5074775;27;70711;-39
2021/11/18 06:48:14;;;;;;;;;;;;;;;31.87;64.08;100528.03;5075145;27;65531;-39
2021/11/18 06:50:53;;;;;;;;;;;;;;;31.89;63.84;100534.06;5073053;27;70281;-38
2021/11/18 06:53:24;;;;;;;;;;;;;;;31.90;63.70;100516.75;5075371;27;65661;-40
2021/11/18 06:55:54;;;;;;;;;;;;;;;31.92;63.76;100514.63;5073921;27;70254;-40
2021/11/18 06:58:26;;;;;;;;;;;;;;;31.93;63.87;100516.31;5058159;27;65415;-40
2021/11/18 07:00:57;;;;;;;;;;;;;;;31.96;63.95;100515.81;5073532;27;69587;-39
2021/11/18 07:03:29;;;;;;;;;;;;;;;31.98;64.11;100534.56;5073576;27;65474;-39
2021/11/18 07:05:59;;;;;;;;;;;;;;;32.00;63.77;100537.88;5074002;27;69117;-39
2021/11/18 07:08:35;;;;;;;;;;;;;;;32.00;63.89;100533.25;5074954;27;66372;-39
2021/11/18 07:11:11;;;;;;;;;;;;;;;32.01;63.71;100502.38;5070656;27;70324;-39
2021/11/18 07:13:46;;;;;;;;;;;;;;;32.04;64.00;100491.06;5075980;27;66503;-39
2021/11/18 07:16:22;;;;;;;;;;;;;;;32.05;63.81;100487.25;5073068;27;69528;-39
2021/11/18 07:18:54;;;;;;;;;;;;;;;32.07;63.58;100488.91;5057644;27;65804;-39
2021/11/18 07:21:28;;;;;;;;;;;;;;;32.08;63.39;100485.16;5054866;28;69769;-39
2021/11/18 07:24:12;;;;;;;;;;;;;;;32.10;63.76;100493.88;5057178;28;59928;-38
2021/11/18 07:26:46;;;;;;;;;;;;;;;32.11;63.58;100496.34;5075797;27;70390;-39
2021/11/18 07:29:34;;;;;;;;;;;;;;;32.12;63.51;100513.44;5074585;27;65815;-39
2021/11/18 07:32:10;;;;;;;;;;;;;;;32.14;63.71;100514.03;5073499;27;69224;-39
2021/11/18 07:34:52;;;;;;;;;;;;;;;32.14;63.62;100516.75;5076085;27;66736;-39
2021/11/18 07:37:27;;;;;;;;;;;;;;;32.15;63.52;100519.25;5054787;27;69283;-39
2021/11/18 07:39:58;;;;;;;;;;;;;;;32.16;63.24;100520.06;5074180;27;65344;-39
2021/11/18 07:42:33;;;;;;;;;;;;;;;32.18;63.60;100534.19;5057860;27;68945;-38
2021/11/18 07:45:53;;;;;;;;;;;;;;;32.18;63.53;100532.31;5071849;27;66450;-39
2021/11/18 07:48:49;;;;;;;;;;;;;;;32.19;63.52;100519.56;5075375;27;70011;-40
2021/11/18 07:51:26;;;;;;;;;;;;;;;32.18;63.46;100518.75;5073787;27;65158;-40
2021/11/18 07:53:59;;;;;;;;;;;;;;;32.19;63.23;100519.56;5072939;27;69805;-40
2021/11/18 07:56:32;;;;;;;;;;;;;;;32.19;63.27;100514.16;5075295;27;65719;-40
2021/11/18 07:59:15;;;;;;;;;;;;;;;32.20;63.59;100529.34;5055135;28;69890;-40
2021/11/18 08:01:55;;;;;;;;;;;;;;;32.19;63.88;100530.44;5073407;27;65938;-38
2021/11/18 08:04:29;;;;;;;;;;;;;;;32.20;63.69;100537.50;5071214;27;69608;-39
2021/11/18 08:07:04;;;;;;;;;;;;;;;32.21;63.50;100544.59;5065457;27;66132;-40
2021/11/18 08:09:43;;;;;;;;;;;;;;;32.20;63.50;100532.91;5070950;27;69532;-39
2021/11/18 08:12:16;;;;;;;;;;;;;;;32.20;63.98;100535.59;5074315;27;65881;-40
2021/11/18 08:14:54;;;;;;;;;;;;;;;32.21;63.76;100531.03;5044710;28;69845;-39
2021/11/18 08:17:24;;;;;;;;;;;;;;;32.22;63.95;100525.34;5072641;27;66856;-39
2021/11/18 08:19:59;;;;;;;;;;;;;;;32.21;63.81;100533.75;5072983;27;70464;-39
2021/11/18 08:22:44;;;;;;;;;;;;;;;32.22;63.84;100530.78;5059229;27;66291;-39
2021/11/18 08:25:18;;;;;;;;;;;;;;;32.22;63.72;100529.94;5074767;27;69944;-39
2021/11/18 08:27:48;;;;;;;;;;;;;;;32.21;63.93;100520.16;5055010;27;66150;-40
2021/11/18 08:30:22;;;;;;;;;;;;;;;32.21;63.85;100518.28;5054756;28;70582;-39
2021/11/18 08:32:54;;;;;;;;;;;;;;;32.21;63.91;100517.47;5071850;27;66492;-40
2021/11/18 08:35:33;;;;;;;;;;;;;;;32.19;63.88;100508.72;5077088;27;70474;-40
2021/11/18 08:38:10;;;;;;;;;;;;;;;32.20;63.75;100521.22;5075314;27;66399;-40
2021/11/18 08:40:47;;;;;;;;;;;;;;;32.19;63.86;100533.16;5076630;27;69600;-40
2021/11/18 08:43:19;;;;;;;;;;;;;;;32.19;63.83;100533.16;5076388;27;65951;-40
2021/11/18 08:45:53;;;;;;;;;;;;;;;32.17;63.61;100537.97;5057819;28;70524;-40
2021/11/18 08:48:24;;;;;;;;;;;;;;;32.17;63.82;100524.41;5073171;27;66772;-40
2021/11/18 08:51:19;;;;;;;;;;;;;;;32.16;64.18;100514.63;5075666;27;70688;-40
2021/11/18 08:53:53;;;;;;;;;;;;;;;32.15;63.73;100499.38;5075724;27;64946;-40
2021/11/18 08:56:24;;;;;;;;;;;;;;;32.14;64.08;100489.59;5074170;27;69481;-40
2021/11/18 08:58:56;;;;;;;;;;;;;;;32.13;63.88;100482.53;5076731;27;66016;-39
2021/11/18 09:01:30;;;;;;;;;;;;;;;32.12;63.87;100481.69;5074275;27;69532;-40
2021/11/18 09:04:02;;;;;;;;;;;;;;;32.10;63.56;100478.41;5078036;27;66915;-39
2021/11/18 09:06:33;;;;;;;;;;;;;;;32.11;63.80;100481.94;5075007;27;69266;-40
2021/11/18 09:09:05;;;;;;;;;;;;;;;32.09;63.58;100470.50;5077874;27;66276;-40
2021/11/18 09:11:37;;;;;;;;;;;;;;;32.08;63.85;100474.28;5076874;27;70131;-40
2021/11/18 09:14:10;;;;;;;;;;;;;;;32.08;63.73;100485.16;5072084;27;65249;-40
2021/11/18 09:16:41;;;;;;;;;;;;;;;32.08;63.49;100485.16;5058848;28;69040;-40
2021/11/18 09:19:21;;;;;;;;;;;;;;;32.05;63.81;100484.53;5060628;27;66395;-40
2021/11/18 09:21:53;;;;;;;;;;;;;;;32.04;63.92;100485.63;5076495;27;69912;-40
2021/11/18 09:24:29;;;;;;;;;;;;;;;32.04;63.80;100490.22;5073686;27;66382;-40
2021/11/18 09:27:03;;;;;;;;;;;;;;;32.02;63.83;100495.88;5073614;27;69877;-38
2021/11/18 09:29:35;;;;;;;;;;;;;;;32.03;63.68;100492.09;5074093;27;67152;-38
2021/11/18 09:32:37;;;;;;;;;;;;;;;32.01;63.73;100491.53;5073441;27;70239;-39
2021/11/18 09:35:19;;;;;;;;;;;;;;;32.00;63.64;100489.84;5082630;27;66399;-39
2021/11/18 09:37:49;;;;;;;;;;;;;;;31.99;64.00;100482.78;5072951;27;70325;-38
2021/11/18 09:40:30;;;;;;;;;;;;;;;31.98;63.77;100494.72;5055185;28;66194;-40
2021/11/18 09:43:20;;;;;;;;;;;;;;;31.90;63.73;100484.19;5075840;27;70122;-39
2021/11/18 09:46:15;;;;;;;;;;;;;;;31.96;63.61;100494.13;5074794;27;66641;-40
2021/11/18 09:48:54;;;;;;;;;;;;;;;31.95;63.75;100495.16;5036758;28;70156;-39
2021/11/18 09:51:41;;;;;;;;;;;;;;;31.94;63.82;100490.81;5057925;27;65284;-39
2021/11/18 09:54:35;;;;;;;;;;;;;;;31.93;63.59;100500.03;5064762;27;70176;-39
2021/11/18 09:57:12;;;;;;;;;;;;;;;31.93;63.94;100510.88;5075195;27;66670;-39
2021/11/18 09:59:50;;;;;;;;;;;;;;;31.93;64.12;100521.72;5074617;27;69339;-39
2021/11/18 10:02:29;;;;;;;;;;;;;;;31.92;63.99;100525.47;5074254;27;66875;-39
2021/11/18 10:05:04;;;;;;;;;;;;;;;31.90;63.90;100527.59;5074173;27;70094;-38
2021/11/18 10:07:45;;;;;;;;;;;;;;;31.89;63.89;100525.91;5074384;27;66518;-39
2021/11/18 10:10:23;;;;;;;;;;;;;;;31.88;64.23;100534.31;5075198;27;70366;-39
2021/11/18 10:13:15;;;;;;;;;;;;;;;31.78;64.06;100518.59;5072851;28;65732;-39
2021/11/18 10:15:51;;;;;;;;;;;;;;;31.84;64.07;100536.66;5058826;28;69882;-40
2021/11/18 10:18:27;;;;;;;;;;;;;;;31.78;64.30;100535.69;5073272;27;66759;-40
2021/11/18 10:21:23;;;;;;;;;;;;;;;31.81;64.21;100543.38;5075955;27;70266;-40
2021/11/18 10:23:58;;;;;;;;;;;;;;;31.81;64.21;100550.69;5075564;27;66605;-40
2021/11/18 10:26:31;;;;;;;;;;;;;;;31.80;64.21;100549.03;5076047;27;69415;-40
2021/11/18 10:29:02;;;;;;;;;;;;;;;31.79;63.92;100558.25;5075515;27;66662;-40
2021/11/18 10:31:52;;;;;;;;;;;;;;;31.78;64.33;100562.00;5077224;27;69993;-40
2021/11/18 10:34:22;;;;;;;;;;;;;;;31.76;64.41;100559.53;5075165;27;66199;-39
2021/11/18 10:37:02;;;;;;;;;;;;;;;31.75;64.89;100566.00;5077371;27;70013;-39
2021/11/18 10:39:48;;;;;;;;;;;;;;;31.74;64.92;100563.53;5077991;27;66092;-40
2021/11/18 10:42:18;;;;;;;;;;;;;;;31.74;65.03;100569.78;5078311;27;70369;-39
2021/11/18 10:44:50;;;;;;;;;;;;;;;31.73;64.62;100565.44;5077969;27;65452;-40
2021/11/18 10:47:23;;;;;;;;;;;;;;;31.75;65.14;100567.91;5078270;27;70635;-39
2021/11/18 10:50:04;;;;;;;;;;;;;;;31.74;65.55;100569.78;5080181;27;65589;-38
2021/11/18 10:52:47;;;;;;;;;;;;;;;31.75;65.69;100562.47;5078479;27;70870;-38
2021/11/18 10:55:26;;;;;;;;;;;;;;;31.75;65.58;100573.31;5076319;27;66259;-38
2021/11/18 10:58:01;;;;;;;;;;;;;;;31.76;65.67;100580.38;5076622;27;70439;-38
2021/11/18 11:00:39;;;;;;;;;;;;;;;31.75;66.50;100578.75;5075345;27;67048;-39
2021/11/18 11:03:21;;;;;;;;;;;;;;;31.76;66.47;100580.38;5073072;28;70067;-39
2021/11/18 11:06:10;;;;;;;;;;;;;;;31.74;66.82;100577.09;5076188;27;66603;-39
2021/11/18 11:08:42;;;;;;;;;;;;;;;31.74;66.86;100582.53;5074974;27;69582;-40
2021/11/18 11:11:28;;;;;;;;;;;;;;;31.40;69.33;100576.78;5077544;27;66689;-39
2021/11/18 11:14:14;;;;;;;;;;;;;;;31.20;70.04;100587.84;5077192;27;70018;-40
2021/11/18 11:16:47;;;;;;;;;;;;;;;31.03;70.18;100595.78;5077964;27;66262;-42
2021/11/18 11:19:24;;;;;;;;;;;;;;;30.94;70.17;100589.03;5077012;27;70253;-39
2021/11/18 11:21:54;;;;;;;;;;;;;;;30.85;70.91;100595.84;5074515;27;66540;-39
2021/11/18 11:24:32;;;;;;;;;;;;;;;30.83;70.76;100609.59;5060694;28;70595;-40
2021/11/18 11:27:13;;;;;;;;;;;;;;;30.80;70.92;100620.06;5049353;27;66030;-40
2021/11/18 11:29:58;;;;;;;;;;;;;;;30.76;71.27;100621.50;5074138;27;70115;-39
2021/11/18 11:32:44;;;;;;;;;;;;;;;30.76;71.93;100633.19;5078464;27;65791;-41
2021/11/18 11:35:35;;;;;;;;;;;;;;;30.69;71.91;100632.44;5077272;27;69586;-40
2021/11/18 11:38:17;;;;;;;;;;;;;;;30.66;71.58;100641.00;5069451;27;66242;-38
2021/11/18 11:41:14;;;;;;;;;;;;;;;30.62;71.44;100646.06;5059257;27;69676;-41
2021/11/18 11:43:48;;;;;;;;;;;;;;;30.59;71.83;100651.91;5052444;27;65336;-41
2021/11/18 11:46:30;;;;;;;;;;;;;;;30.59;71.68;100657.34;5075020;27;70118;-39
2021/11/18 11:49:15;;;;;;;;;;;;;;;30.58;71.91;100660.25;5074943;27;66120;-40
2021/11/18 11:51:46;;;;;;;;;;;;;;;30.57;71.96;100664.84;5071880;27;69332;-40
2021/11/18 11:54:16;;;;;;;;;;;;;;;30.59;72.06;100662.75;5074389;28;65734;-40
2021/11/18 11:56:50;;;;;;;;;;;;;;;30.58;72.48;100671.91;5074078;27;70791;-41
2021/11/18 11:59:21;;;;;;;;;;;;;;;30.56;72.21;100676.69;5074863;27;66005;-42
2021/11/18 12:02:07;;;;;;;;;;;;;;;30.59;72.47;100689.81;5057694;27;70176;-40
2021/11/18 12:04:37;;;;;;;;;;;;;;;30.57;72.32;100694.63;5048081;28;65720;-41
2021/11/18 12:07:08;;;;;;;;;;;;;;;30.56;72.09;100700.25;5050903;27;69965;-39
2021/11/18 12:09:41;;;;;;;;;;;;;;;30.56;72.95;100701.06;5073940;27;66401;-41
2021/11/18 12:12:13;;;;;;;;;;;;;;;30.57;72.68;100707.31;5068306;27;70433;-41
2021/11/18 12:14:45;;;;;;;;;;;;;;;30.58;72.46;100715.22;5074066;27;65507;-40
2021/11/18 12:17:36;;;;;;;;;;;;;;;30.56;72.49;100717.31;5064948;27;69897;-39
2021/11/18 12:20:14;;;;;;;;;;;;;;;30.58;72.76;100726.03;5047756;28;66550;-39
2021/11/18 12:22:44;;;;;;;;;;;;;;;30.57;72.90;100739.81;5074379;27;70059;-39
2021/11/18 12:25:29;;;;;;;;;;;;;;;30.56;72.45;100738.97;5073237;27;65630;-39
2021/11/18 12:28:03;;;;;;;;;;;;;;;30.54;72.46;100741.09;5071193;27;70119;-38
2021/11/18 12:30:36;;;;;;;;;;;;;;;30.50;72.48;100746.09;5064574;27;66527;-39
2021/11/18 12:33:09;;;;;;;;;;;;;;;30.50;72.46;100747.97;5070314;27;69965;-39
2021/11/18 12:35:43;;;;;;;;;;;;;;;30.48;72.31;100747.38;5069974;27;66849;-39
2021/11/18 12:38:16;;;;;;;;;;;;;;;30.48;71.81;100758.22;5072531;27;69012;-39
2021/11/18 12:41:08;;;;;;;;;;;;;;;30.46;71.92;100765.72;5073053;27;66582;-39
2021/11/18 12:44:00;;;;;;;;;;;;;;;30.47;71.57;100761.94;5062863;27;69944;-39
2021/11/18 12:46:51;;;;;;;;;;;;;;;30.44;72.03;100751.56;5056832;27;65493;-40
2021/11/18 12:49:24;;;;;;;;;;;;;;;30.46;71.69;100760.31;5073382;27;69823;-40
2021/11/18 12:52:12;;;;;;;;;;;;;;;30.47;72.19;100756.53;5075456;27;65604;-40
2021/11/18 12:55:06;;;;;;;;;;;;;;;30.48;72.03;100752.81;5064770;27;70602;-39
2021/11/18 12:57:40;;;;;;;;;;;;;;;30.47;72.31;100762.78;5074365;27;67686;-40
2021/11/18 13:00:10;;;;;;;;;;;;;;;30.44;72.03;100768.63;5070670;27;69659;-39
2021/11/18 13:02:51;;;;;;;;;;;;;;;30.45;71.63;100764.03;5072904;27;66282;-39
2021/11/18 13:05:55;;;;;;;;;;;;;;;30.44;71.71;100765.09;5072651;27;69505;-39
2021/11/18 13:08:41;;;;;;;;;;;;;;;30.41;71.72;100773.66;5043514;28;65587;-39
2021/11/18 13:11:27;;;;;;;;;;;;;;;30.38;71.11;100766.81;5076385;27;69896;-40
2021/11/18 13:14:49;;;;;;;;;;;;;;;30.25;68.73;100765.00;5071912;27;66481;-40
2021/11/18 13:17:51;;;;;;;;;;;;;;;30.07;65.80;100767.63;5029550;28;69211;-41
2021/11/18 13:20:53;;;;;;;;;;;;;;;29.95;64.00;100774.75;5035187;28;66483;-41
2021/11/18 13:24:02;;;;;;;;;;;;;;;29.86;63.17;100786.88;5037605;28;70713;-41
2021/11/18 13:26:53;;;;;;;;;;;;;;;29.77;62.39;100784.41;5055616;27;66539;-41
2021/11/18 13:30:02;;;;;;;;;;;;;;;29.66;61.19;100776.97;5074330;27;70012;-41
2021/11/18 13:32:53;;;;;;;;;;;;;;;29.57;59.27;100783.66;5073111;27;65489;-42